createdAt,value
2023-04-04T00:05:03.957Z,-1.44
2023-04-04T00:10:08.086Z,-1.48
2023-04-04T00:15:12.288Z,-1.57
2023-04-04T00:20:16.417Z,-1.56
2023-04-04T00:25:20.600Z,-1.57
2023-04-04T00:30:24.771Z,-1.64
2023-04-04T00:35:28.982Z,-1.69
2023-04-04T00:40:33.100Z,-1.72
2023-04-04T00:45:37.345Z,-1.78
2023-04-04T00:50:41.666Z,-1.83
2023-04-04T00:55:45.630Z,-1.83
2023-04-04T01:00:49.869Z,-1.90
2023-04-04T01:05:53.923Z,-1.91
2023-04-04T01:10:56.225Z,-1.96
2023-04-04T01:16:00.402Z,-2.04
2023-04-04T01:21:02.651Z,-2.13
2023-04-04T01:26:06.835Z,-2.13
2023-04-04T01:36:15.889Z,-2.16
2023-04-04T01:41:19.306Z,-2.13
2023-04-04T01:46:23.573Z,-2.14
2023-04-04T01:51:27.664Z,-2.04
2023-04-04T01:56:31.866Z,-2.04
2023-04-04T02:01:36.031Z,-2.10
2023-04-04T02:06:40.170Z,-2.11
2023-04-04T02:11:44.322Z,-2.00
2023-04-04T02:16:48.475Z,-2.11
2023-04-04T02:21:52.689Z,-2.26
2023-04-04T02:26:56.813Z,-2.24
2023-04-04T02:32:01.001Z,-2.26
2023-04-04T02:37:05.158Z,-2.39
2023-04-04T02:42:09.347Z,-2.48
2023-04-04T02:47:13.542Z,-2.52
2023-04-04T02:52:17.678Z,-2.52
2023-04-04T02:57:21.848Z,-2.56
2023-04-04T03:02:26.086Z,-2.62
2023-04-04T03:07:30.146Z,-2.68
2023-04-04T03:12:32.429Z,-2.82
2023-04-04T03:17:36.903Z,-2.91
2023-04-04T03:22:38.893Z,-2.95
2023-04-04T03:27:43.141Z,-2.87
2023-04-04T03:32:47.223Z,-2.94
2023-04-04T03:37:51.390Z,-2.99
2023-04-04T03:42:55.542Z,-2.95
2023-04-04T16:03:03.725Z,9.90
2023-04-04T16:08:06.039Z,11.53
2023-04-04T16:13:10.202Z,12.64
2023-04-04T16:18:14.422Z,14.03
2023-04-04T16:23:18.507Z,13.19
2023-04-04T16:28:22.688Z,12.70
2023-04-04T16:33:26.830Z,12.82
2023-04-04T16:38:30.976Z,10.67
2023-04-04T16:43:35.136Z,10.85
2023-04-04T16:48:39.327Z,9.38
2023-04-04T16:53:43.496Z,8.92
2023-04-04T16:58:47.692Z,8.67
2023-04-04T17:03:51.881Z,8.30
2023-04-04T17:08:55.974Z,8.16
2023-04-04T17:14:00.192Z,7.93
2023-04-04T17:24:08.442Z,7.61
2023-04-04T17:29:12.609Z,7.39
2023-04-04T17:34:16.806Z,7.20
2023-04-04T17:39:20.942Z,7.09
2023-04-04T17:44:25.109Z,6.89
2023-04-04T17:49:29.258Z,6.66
2023-04-04T17:54:33.402Z,6.48
2023-04-04T17:59:35.709Z,6.35
2023-04-04T18:04:39.868Z,6.22
2023-04-04T18:09:42.105Z,6.08
2023-04-04T18:14:46.315Z,5.88
2023-04-04T18:19:50.445Z,5.71
2023-04-04T18:24:54.633Z,5.65
2023-04-04T18:29:58.800Z,5.66
2023-04-04T18:35:02.948Z,5.59
2023-04-04T18:40:07.118Z,5.43
2023-04-04T18:45:11.253Z,5.21
2023-04-04T18:50:15.428Z,5.00
2023-04-04T18:55:19.629Z,4.69
2023-04-04T19:00:23.751Z,4.56
2023-04-04T19:05:27.945Z,4.54
2023-04-04T19:10:32.204Z,4.43
2023-04-04T19:15:36.230Z,4.34
2023-04-04T19:20:40.419Z,4.30
2023-04-04T19:25:44.592Z,4.29
2023-04-04T19:30:48.855Z,4.21
2023-04-04T19:35:52.893Z,4.17
2023-04-04T19:40:57.086Z,4.13
2023-04-04T19:46:01.278Z,4.08
2023-04-04T19:51:05.382Z,3.96
2023-04-04T19:56:07.684Z,3.87
2023-04-04T20:01:11.845Z,3.86
2023-04-04T20:06:16.020Z,3.78
2023-04-04T20:11:20.206Z,3.70
2023-04-04T20:16:24.332Z,3.63
2023-04-04T20:21:28.501Z,3.58
2023-04-04T20:26:32.653Z,3.40
2023-04-04T20:31:36.828Z,3.24
2023-04-04T20:36:40.996Z,3.15
2023-04-04T20:41:45.135Z,3.11
2023-04-04T20:46:49.295Z,3.00
2023-04-04T20:51:53.496Z,2.92
2023-04-04T20:56:57.642Z,2.88
2023-04-04T21:02:01.784Z,2.84
2023-04-04T21:07:05.968Z,2.84
2023-04-04T21:12:10.114Z,2.76
2023-04-04T21:17:14.305Z,2.62
2023-04-04T21:22:18.450Z,2.42
2023-04-04T21:27:22.604Z,2.14
2023-04-04T21:32:26.797Z,1.96
2023-04-04T21:37:30.926Z,1.90
2023-04-04T21:42:33.240Z,1.81
2023-04-04T21:47:37.381Z,1.68
2023-04-04T21:52:39.649Z,1.54
2023-04-04T21:57:43.791Z,1.35
2023-04-04T22:02:48.044Z,1.26
2023-04-04T22:07:52.141Z,1.16
2023-04-04T22:12:56.315Z,1.04
2023-04-04T22:18:00.554Z,0.93
2023-04-04T22:23:04.669Z,0.87
2023-04-04T22:28:08.832Z,0.75
2023-04-04T22:33:12.973Z,0.66
2023-04-04T22:38:17.117Z,0.58
2023-04-04T22:43:21.304Z,0.47
2023-04-04T22:48:25.463Z,0.41
2023-04-04T22:53:29.631Z,0.33
2023-04-04T22:58:33.811Z,0.23
2023-04-04T23:03:37.960Z,0.26
2023-04-04T23:08:42.127Z,0.26
2023-04-04T23:13:46.340Z,0.26
2023-04-04T23:18:50.469Z,0.14
2023-04-04T23:23:54.678Z,0.06
2023-04-04T23:28:58.824Z,0.05
2023-04-04T23:34:03.006Z,0.12
2023-04-04T23:39:05.240Z,0.15
2023-04-04T23:44:09.399Z,0.20
2023-04-04T23:49:11.684Z,0.24
2023-04-04T23:54:15.819Z,0.21
2023-04-04T23:59:20.040Z,0.19
